createdAt,value
2022-12-14T00:01:53.965Z,28.67
2022-12-14T00:04:21.651Z,28.65
2022-12-14T00:06:49.375Z,27.50
2022-12-14T00:09:17.194Z,31.20
2022-12-14T00:11:44.944Z,26.27
2022-12-14T00:14:14.023Z,30.35
2022-12-14T00:16:41.651Z,34.40
2022-12-14T00:19:11.921Z,25.38
2022-12-14T00:24:07.419Z,29.83
2022-12-14T00:26:35.062Z,27.13
2022-12-14T00:29:03.075Z,30.33
2022-12-14T00:31:32.461Z,27.65
2022-12-14T00:34:01.118Z,28.85
2022-12-14T00:36:31.464Z,28.60
2022-12-14T00:38:59.495Z,27.88
2022-12-14T00:41:27.143Z,28.30
2022-12-14T00:43:54.849Z,28.33
2022-12-14T00:46:22.476Z,32.33
2022-12-14T00:48:51.546Z,31.45
2022-12-14T00:51:19.282Z,27.55
2022-12-14T00:53:46.993Z,28.15
2022-12-14T00:56:14.670Z,29.65
2022-12-14T00:58:42.333Z,29.95
2022-12-14T01:01:13.285Z,27.10
2022-12-14T01:03:41.735Z,31.33
2022-12-14T01:06:16.763Z,26.40
2022-12-14T01:08:44.483Z,29.85
2022-12-14T01:11:12.980Z,30.33
2022-12-14T01:13:41.519Z,30.02
2022-12-14T01:16:10.896Z,26.48
2022-12-14T01:18:39.980Z,31.40
2022-12-14T01:21:16.675Z,30.60
2022-12-14T01:23:45.777Z,32.15
2022-12-14T01:26:15.064Z,33.15
2022-12-14T01:28:43.093Z,22.33
2022-12-14T01:31:13.473Z,30.40
2022-12-14T01:33:41.406Z,29.02
2022-12-14T01:36:11.840Z,29.48
2022-12-14T01:38:40.910Z,34.17
2022-12-14T01:41:10.231Z,30.15
2022-12-14T01:43:48.930Z,29.33
2022-12-14T01:46:22.021Z,27.60
2022-12-14T01:48:53.149Z,30.35
2022-12-14T01:51:20.927Z,29.80
2022-12-14T01:53:50.290Z,31.50
2022-12-14T01:56:18.727Z,19.13
2022-12-14T01:58:46.575Z,31.77
2022-12-14T02:01:14.910Z,29.80
2022-12-14T02:03:47.879Z,31.17
2022-12-14T02:06:18.745Z,30.98
2022-12-14T02:08:49.021Z,31.35
2022-12-14T02:11:25.040Z,30.58
2022-12-14T02:13:52.709Z,26.30
2022-12-14T02:16:20.519Z,27.77
2022-12-14T02:18:48.190Z,27.33
2022-12-14T02:21:22.716Z,28.10
2022-12-14T02:24:22.598Z,29.70
2022-12-14T02:27:08.824Z,29.35
2022-12-14T02:29:49.613Z,28.38
2022-12-14T02:32:31.220Z,29.08
2022-12-14T02:35:02.952Z,29.77
2022-12-14T02:37:37.061Z,30.08
2022-12-14T02:40:20.324Z,30.17
2022-12-14T02:42:57.828Z,30.70
2022-12-14T02:45:33.250Z,29.52
2022-12-14T02:48:03.680Z,27.90
2022-12-14T02:50:38.843Z,27.27
2022-12-14T02:53:16.438Z,29.50
2022-12-14T02:55:49.634Z,29.02
2022-12-14T02:58:21.885Z,27.40
2022-12-14T03:00:51.888Z,28.65
2022-12-14T03:03:19.574Z,26.98
2022-12-14T03:05:56.938Z,28.10
2022-12-14T03:08:27.378Z,27.42
2022-12-14T03:10:58.286Z,26.50
2022-12-14T03:13:30.634Z,27.73
2022-12-14T03:16:03.917Z,27.65
2022-12-14T03:18:36.520Z,26.65
2022-12-14T03:21:08.479Z,29.63
2022-12-14T03:23:42.284Z,27.45
2022-12-14T03:26:17.142Z,30.05
2022-12-14T03:28:48.830Z,29.00
2022-12-14T03:31:23.298Z,28.25
2022-12-14T03:33:54.883Z,28.23
2022-12-14T03:36:28.415Z,25.77
2022-12-14T03:39:00.072Z,32.38
2022-12-14T03:41:35.825Z,31.05
2022-12-14T03:44:26.563Z,26.63
2022-12-14T03:47:02.846Z,28.20
2022-12-14T03:49:43.746Z,30.08
2022-12-14T03:52:23.219Z,25.95
2022-12-14T03:54:59.846Z,19.08
2022-12-14T03:57:39.751Z,26.50
2022-12-14T04:00:10.276Z,26.13
2022-12-14T04:02:46.770Z,28.58
2022-12-14T04:05:19.822Z,26.38
2022-12-14T04:07:56.280Z,25.23
2022-12-14T04:10:46.441Z,27.42
2022-12-14T04:16:26.700Z,24.63
2022-12-14T04:19:01.005Z,27.58
2022-12-14T04:21:39.904Z,27.23
2022-12-14T04:24:31.576Z,24.23
2022-12-14T04:27:09.167Z,26.10
2022-12-14T04:29:56.900Z,27.15
2022-12-14T04:32:28.797Z,26.83
2022-12-14T04:35:03.152Z,26.15
2022-12-14T04:37:33.016Z,25.85
2022-12-14T04:40:05.708Z,23.27
2022-12-14T04:42:37.255Z,26.20
2022-12-14T04:45:08.820Z,25.88
2022-12-14T04:47:43.153Z,28.63
2022-12-14T04:50:19.834Z,28.80
2022-12-14T04:52:51.850Z,26.20
2022-12-14T04:55:28.472Z,23.30
2022-12-14T04:58:01.273Z,24.52
2022-12-14T05:00:33.377Z,24.13
2022-12-14T05:03:18.377Z,28.08
2022-12-14T05:05:57.867Z,27.58
2022-12-14T05:08:39.607Z,20.40
2022-12-14T05:11:48.022Z,34.30
2022-12-14T05:14:02.912Z,26.88
2022-12-14T05:16:30.963Z,26.42
2022-12-14T05:18:58.767Z,29.30
2022-12-14T05:21:45.384Z,26.40
2022-12-14T05:24:13.093Z,25.27
2022-12-14T05:26:40.780Z,25.23
2022-12-14T05:29:08.382Z,23.20
2022-12-14T05:31:36.163Z,23.38
2022-12-14T05:34:03.882Z,29.80
2022-12-14T05:36:32.929Z,25.33
2022-12-14T05:39:00.867Z,25.25
2022-12-14T05:41:28.525Z,27.98
2022-12-14T05:43:56.316Z,24.75
2022-12-14T05:46:24.055Z,25.35
2022-12-14T05:48:51.712Z,25.75
2022-12-14T05:51:19.365Z,23.92
2022-12-14T05:53:48.429Z,25.85
2022-12-14T05:56:16.109Z,25.48
2022-12-14T05:58:43.796Z,25.58
2022-12-14T06:01:18.805Z,24.45
2022-12-14T06:03:47.456Z,25.95
2022-12-14T06:06:15.797Z,25.60
2022-12-14T06:08:45.394Z,27.10
2022-12-14T06:11:15.794Z,25.08
2022-12-14T06:13:44.412Z,26.25
2022-12-14T06:16:13.766Z,31.67
2022-12-14T06:18:46.665Z,26.73
2022-12-14T06:21:15.225Z,27.42
2022-12-14T06:23:43.340Z,31.60
2022-12-14T06:26:12.000Z,26.95
2022-12-14T06:28:41.148Z,26.33
2022-12-14T06:31:09.469Z,23.67
2022-12-14T06:33:37.327Z,23.33
2022-12-14T06:36:05.416Z,26.00
2022-12-14T06:38:33.118Z,27.50
2022-12-14T06:41:00.793Z,29.98
2022-12-14T06:43:28.850Z,30.85
2022-12-14T06:45:58.085Z,28.50
2022-12-14T06:48:25.799Z,26.83
2022-12-14T06:50:53.439Z,26.52
2022-12-14T06:53:21.118Z,23.98
2022-12-14T06:55:49.338Z,30.40
2022-12-14T06:58:17.292Z,26.67
2022-12-14T07:00:45.191Z,29.27
2022-12-14T07:03:14.221Z,34.22
2022-12-14T07:05:47.221Z,24.63
2022-12-14T07:08:16.554Z,27.05
2022-12-14T07:10:44.202Z,26.52
2022-12-14T07:13:11.803Z,27.05
2022-12-14T07:15:39.532Z,25.88
2022-12-14T07:18:07.220Z,28.10
2022-12-14T07:20:36.221Z,27.02
2022-12-14T07:23:03.944Z,24.13
2022-12-14T07:25:31.610Z,32.80
2022-12-14T07:27:59.235Z,28.45
2022-12-14T07:30:26.979Z,29.70
2022-12-14T07:32:54.631Z,29.08
2022-12-14T07:35:22.283Z,30.85
2022-12-14T07:37:51.836Z,26.75
2022-12-14T07:40:19.541Z,26.83
2022-12-14T07:42:49.579Z,29.60
2022-12-14T07:45:17.645Z,23.95
2022-12-14T07:47:45.507Z,29.70
2022-12-14T07:50:13.480Z,29.00
2022-12-14T07:52:41.355Z,26.60
2022-12-14T07:55:10.969Z,31.63
2022-12-14T07:57:38.815Z,31.70
2022-12-14T08:00:07.915Z,27.52
2022-12-14T08:02:35.905Z,32.40
2022-12-14T08:05:07.868Z,33.35
2022-12-14T08:07:40.109Z,32.75
2022-12-14T08:10:10.337Z,28.27
2022-12-14T08:12:38.103Z,32.35
2022-12-14T08:15:07.296Z,32.78
2022-12-14T08:17:35.292Z,27.87
2022-12-14T08:20:04.156Z,24.55
2022-12-14T08:22:32.022Z,27.63
2022-12-14T08:24:59.827Z,29.58
2022-12-14T08:27:31.236Z,31.48
2022-12-14T08:29:59.109Z,32.80
2022-12-14T08:32:32.498Z,28.13
2022-12-14T08:35:02.016Z,30.92
2022-12-14T08:37:29.874Z,31.25
2022-12-14T08:39:57.866Z,29.95
2022-12-14T08:42:25.725Z,29.48
2022-12-14T08:44:55.015Z,48.25
2022-12-14T08:47:22.912Z,30.10
2022-12-14T08:49:50.840Z,23.80
2022-12-14T08:52:21.469Z,29.60
2022-12-14T08:54:49.438Z,28.58
2022-12-14T08:57:17.314Z,25.38
2022-12-14T09:00:01.234Z,26.77
2022-12-14T09:02:31.544Z,31.45
2022-12-14T09:04:59.495Z,27.02
2022-12-14T09:07:28.445Z,27.30
2022-12-14T09:09:56.207Z,27.83
2022-12-14T09:12:23.977Z,27.65
2022-12-14T09:14:53.131Z,27.95
2022-12-14T09:17:21.228Z,29.15
2022-12-14T09:19:50.527Z,26.08
2022-12-14T09:22:18.730Z,31.57
2022-12-14T09:24:46.674Z,31.58
2022-12-14T09:27:14.543Z,30.02
2022-12-14T09:29:42.523Z,36.65
2022-12-14T09:32:10.375Z,28.42
2022-12-14T09:34:38.147Z,29.40
2022-12-14T09:37:07.737Z,27.60
2022-12-14T09:39:36.817Z,29.73
2022-12-14T09:42:17.499Z,26.92
2022-12-14T09:44:59.101Z,30.05
2022-12-14T09:47:33.948Z,25.70
2022-12-14T09:50:05.098Z,28.60
2022-12-14T09:52:38.230Z,25.30
2022-12-14T09:55:21.149Z,25.40
2022-12-14T09:57:53.263Z,26.13
2022-12-14T10:00:22.131Z,29.20
2022-12-14T10:03:06.893Z,27.00
2022-12-14T10:05:51.563Z,27.85
2022-12-14T10:08:25.943Z,32.42
2022-12-14T10:11:04.817Z,40.95
2022-12-14T10:13:44.541Z,28.92
2022-12-14T10:16:23.820Z,25.08
2022-12-14T10:19:15.397Z,26.63
2022-12-14T10:21:49.554Z,27.40
2022-12-14T10:24:26.284Z,26.23
2022-12-14T10:26:56.704Z,26.63
2022-12-14T10:29:33.492Z,25.52
2022-12-14T10:32:14.007Z,30.05
2022-12-14T10:34:43.794Z,26.38
2022-12-14T10:37:25.654Z,26.27
2022-12-14T10:40:17.573Z,30.20
2022-12-14T10:42:59.772Z,38.10
2022-12-14T10:45:41.831Z,24.88
2022-12-14T10:48:26.861Z,32.80
2022-12-14T10:51:01.165Z,31.15
2022-12-14T10:53:40.943Z,31.38
2022-12-14T10:58:41.881Z,27.08
2022-12-14T11:01:14.389Z,25.92
2022-12-14T11:03:45.159Z,23.02
2022-12-14T11:06:17.765Z,24.50
2022-12-14T11:08:48.367Z,24.50
2022-12-14T11:11:20.000Z,24.52
2022-12-14T11:13:52.610Z,23.33
2022-12-14T11:16:33.662Z,25.48
2022-12-14T11:19:05.962Z,25.50
2022-12-14T11:21:36.019Z,23.17
2022-12-14T11:24:05.271Z,24.83
2022-12-14T11:26:38.261Z,28.90
2022-12-14T11:29:10.944Z,28.65
2022-12-14T11:31:41.491Z,24.50
2022-12-14T11:34:22.860Z,21.90
2022-12-14T11:36:50.938Z,23.00
2022-12-14T11:39:22.783Z,23.13
2022-12-14T11:42:00.990Z,31.42
2022-12-14T11:44:37.557Z,27.40
2022-12-14T11:47:08.708Z,21.85
2022-12-14T11:49:43.743Z,23.75
2022-12-14T11:52:13.146Z,20.63
2022-12-14T11:54:49.501Z,23.50
2022-12-14T11:57:26.380Z,23.25
2022-12-14T11:59:57.650Z,23.83
2022-12-14T12:02:30.265Z,22.80
2022-12-14T12:05:03.675Z,21.70
2022-12-14T12:07:34.917Z,23.80
2022-12-14T12:10:16.436Z,33.40
2022-12-14T12:12:54.360Z,29.10
2022-12-14T12:15:25.090Z,26.85
2022-12-14T12:20:29.217Z,24.77
2022-12-14T12:23:02.358Z,31.55
2022-12-14T12:25:37.251Z,23.77
2022-12-14T12:28:17.606Z,22.60
2022-12-14T12:30:50.769Z,26.95
2022-12-14T12:33:32.338Z,26.10
2022-12-14T12:36:04.335Z,21.50
2022-12-14T12:38:49.948Z,25.50
2022-12-14T12:41:29.176Z,25.90
2022-12-14T12:44:04.704Z,24.13
2022-12-14T12:46:48.421Z,24.88
2022-12-14T12:49:23.114Z,28.67
2022-12-14T12:51:55.090Z,54.80
2022-12-14T12:54:28.835Z,25.67
2022-12-14T12:57:00.061Z,23.60
2022-12-14T12:59:37.377Z,26.55
2022-12-14T13:02:17.756Z,26.85
2022-12-14T13:04:52.495Z,25.10
2022-12-14T13:07:30.408Z,27.75
2022-12-14T13:10:05.297Z,27.80
2022-12-14T13:12:37.738Z,31.70
2022-12-14T13:15:16.849Z,26.30
2022-12-14T13:17:49.300Z,25.38
2022-12-14T13:20:23.403Z,28.38
2022-12-14T13:22:51.762Z,28.88
2022-12-14T13:25:25.084Z,27.25
2022-12-14T13:28:14.747Z,27.88
2022-12-14T13:30:59.638Z,25.45
2022-12-14T13:33:51.142Z,24.52
2022-12-14T13:36:37.323Z,25.77
2022-12-14T13:39:23.115Z,24.85
2022-12-14T13:41:59.237Z,26.58
2022-12-14T13:44:51.912Z,29.27
2022-12-14T13:47:26.941Z,27.05
2022-12-14T13:50:35.535Z,32.45
2022-12-14T13:52:47.700Z,19.53
2022-12-14T13:55:28.271Z,26.20
2022-12-14T13:58:08.135Z,26.25
2022-12-14T14:00:58.433Z,29.50
2022-12-14T14:06:37.336Z,26.48
2022-12-14T14:09:42.550Z,27.67
2022-12-14T14:12:39.089Z,28.25
2022-12-14T14:15:26.239Z,28.30
2022-12-14T14:17:55.936Z,30.58
2022-12-14T14:20:37.583Z,25.60
2022-12-14T14:23:31.748Z,33.40
2022-12-14T14:26:30.617Z,30.98
2022-12-14T14:29:22.916Z,28.23
2022-12-14T14:31:53.364Z,35.22
2022-12-14T14:34:30.459Z,32.35
2022-12-14T14:37:00.842Z,34.42
2022-12-14T14:42:26.154Z,37.30
2022-12-14T14:44:56.443Z,33.03
2022-12-14T14:53:01.809Z,30.45
2022-12-14T14:55:58.884Z,34.00
2022-12-14T14:58:29.780Z,38.03
2022-12-14T15:01:11.057Z,34.25
2022-12-14T15:03:52.621Z,34.75
2022-12-14T15:06:24.246Z,41.55
2022-12-14T15:08:58.577Z,38.22
2022-12-14T15:11:29.312Z,33.85
2022-12-14T15:14:01.894Z,35.40
2022-12-14T15:16:33.576Z,38.35
2022-12-14T15:19:27.837Z,36.15
2022-12-14T15:21:58.491Z,38.67
2022-12-14T15:24:27.878Z,36.63
2022-12-14T15:26:55.558Z,32.73
2022-12-14T15:29:28.207Z,38.13
2022-12-14T15:32:00.555Z,36.92
2022-12-14T15:34:29.099Z,35.35
2022-12-14T15:36:57.511Z,37.38
2022-12-14T15:39:32.511Z,41.67
2022-12-14T15:42:05.252Z,43.08
2022-12-14T15:44:32.944Z,34.58
2022-12-14T15:47:00.586Z,36.88
2022-12-14T15:49:28.219Z,37.92
2022-12-14T15:51:57.119Z,38.83
2022-12-14T15:54:27.057Z,39.00
2022-12-14T15:56:58.109Z,42.40
2022-12-14T15:59:30.555Z,40.28
2022-12-14T16:02:07.343Z,38.15
2022-12-14T16:04:37.787Z,37.95
2022-12-14T16:07:09.993Z,43.65
2022-12-14T16:09:42.712Z,40.97
2022-12-14T16:12:20.872Z,46.35
2022-12-14T16:14:54.174Z,43.42
2022-12-14T16:17:26.113Z,41.28
2022-12-14T16:20:00.254Z,44.55
2022-12-14T16:22:29.065Z,47.85
2022-12-14T16:25:17.323Z,40.70
2022-12-14T16:27:50.114Z,39.70
2022-12-14T16:30:30.953Z,47.28
2022-12-14T16:33:16.130Z,41.92
2022-12-14T16:35:45.720Z,46.60
2022-12-14T16:38:15.367Z,33.30
2022-12-14T16:40:52.647Z,49.35
2022-12-14T16:43:32.915Z,46.60
2022-12-14T16:46:10.100Z,47.60
2022-12-14T16:48:40.912Z,45.97
2022-12-14T16:54:27.995Z,46.03
2022-12-14T16:57:03.261Z,48.97
2022-12-14T16:59:39.862Z,50.97
2022-12-14T17:02:25.531Z,53.35
2022-12-14T17:04:53.761Z,54.63
2022-12-14T17:07:27.128Z,55.65
2022-12-14T17:09:56.355Z,48.78
2022-12-14T17:12:25.603Z,54.37
2022-12-14T17:14:55.097Z,52.72
2022-12-14T17:17:29.134Z,60.15
2022-12-14T17:19:56.905Z,51.38
2022-12-14T17:22:27.554Z,53.15
2022-12-14T17:24:55.291Z,52.42
2022-12-14T17:27:26.571Z,51.80
2022-12-14T17:29:57.165Z,51.70
2022-12-14T17:32:28.819Z,51.95
2022-12-14T17:34:56.560Z,57.10
2022-12-14T17:37:26.857Z,54.30
2022-12-14T17:39:57.447Z,57.10
2022-12-14T17:42:25.179Z,57.85
2022-12-14T17:44:56.432Z,60.28
2022-12-14T17:47:24.622Z,54.70
2022-12-14T17:49:53.171Z,58.03
2022-12-14T17:52:24.637Z,57.60
2022-12-14T17:54:52.296Z,52.70
2022-12-14T17:57:22.002Z,52.30
2022-12-14T18:00:10.457Z,59.22
2022-12-14T18:02:40.615Z,58.67
2022-12-14T18:05:18.662Z,58.17
2022-12-14T18:07:46.364Z,52.20
2022-12-14T18:10:18.358Z,59.55
2022-12-14T18:12:46.150Z,55.42
2022-12-14T18:15:18.348Z,56.47
2022-12-14T18:17:50.632Z,62.38
2022-12-14T18:20:19.924Z,55.35
2022-12-14T18:22:49.484Z,56.60
2022-12-14T18:25:31.598Z,58.85
2022-12-14T18:28:00.106Z,53.55
2022-12-14T18:30:30.968Z,57.50
2022-12-14T18:33:04.164Z,59.63
2022-12-14T18:35:33.937Z,61.28
2022-12-14T18:38:01.832Z,56.35
2022-12-14T18:40:31.439Z,58.97
2022-12-14T18:42:59.132Z,42.92
2022-12-14T18:45:29.513Z,60.83
2022-12-14T18:47:57.184Z,56.78
2022-12-14T18:50:26.427Z,58.50
2022-12-14T18:52:55.510Z,59.67
2022-12-14T18:55:25.820Z,59.92
2022-12-14T18:57:55.730Z,62.25
2022-12-14T19:00:24.914Z,65.82
2022-12-14T19:02:53.529Z,61.30
2022-12-14T19:05:26.087Z,60.00
2022-12-14T19:07:57.584Z,59.88
2022-12-14T19:10:27.564Z,59.33
2022-12-14T19:12:55.767Z,58.92
2022-12-14T19:15:25.429Z,61.17
2022-12-14T19:17:53.610Z,64.63
2022-12-14T19:20:21.941Z,62.85
2022-12-14T19:22:50.479Z,59.17
2022-12-14T19:25:20.632Z,58.05
2022-12-14T19:30:37.087Z,66.82
2022-12-14T19:33:05.035Z,65.10
2022-12-14T19:35:32.842Z,63.80
2022-12-14T19:38:00.590Z,66.97
2022-12-14T19:40:29.664Z,57.30
2022-12-14T19:42:57.277Z,63.08
2022-12-14T19:45:24.924Z,63.33
2022-12-14T19:47:52.522Z,63.13
2022-12-14T19:50:20.273Z,66.30
2022-12-14T19:52:47.973Z,63.00
2022-12-14T19:55:15.603Z,64.57
2022-12-14T19:57:44.619Z,67.78
2022-12-14T20:00:13.040Z,66.35
2022-12-14T20:02:40.889Z,62.28
2022-12-14T20:05:09.477Z,64.43
2022-12-14T20:07:43.349Z,66.50
2022-12-14T20:10:11.484Z,69.82
2022-12-14T20:12:39.144Z,66.03
2022-12-14T20:15:09.103Z,70.60
2022-12-14T20:17:36.727Z,72.65
2022-12-14T20:20:04.450Z,62.90
2022-12-14T20:22:32.127Z,66.95
2022-12-14T20:24:59.804Z,68.95
2022-12-14T20:27:27.463Z,72.93
2022-12-14T20:29:55.098Z,74.82
2022-12-14T20:32:24.164Z,60.63
2022-12-14T20:34:51.842Z,70.20
2022-12-14T20:37:19.447Z,63.67
2022-12-14T20:39:47.124Z,65.07
2022-12-14T20:42:14.760Z,63.35
2022-12-14T20:44:42.485Z,63.90
2022-12-14T20:47:10.228Z,70.60
2022-12-14T20:49:39.668Z,69.60
2022-12-14T20:52:07.403Z,68.85
2022-12-14T20:54:35.071Z,65.60
2022-12-14T20:57:02.758Z,71.28
2022-12-14T20:59:30.466Z,68.85
2022-12-14T21:01:58.318Z,64.75
2022-12-14T21:04:26.212Z,67.22
2022-12-14T21:06:55.260Z,64.90
2022-12-14T21:09:22.974Z,69.15
2022-12-14T21:12:09.025Z,71.03
2022-12-14T21:14:39.117Z,66.82
2022-12-14T21:19:35.901Z,63.72
2022-12-14T21:22:05.000Z,69.38
2022-12-14T21:27:22.915Z,63.78
2022-12-14T21:29:51.373Z,67.50
2022-12-14T21:32:20.215Z,70.43
2022-12-14T21:34:48.647Z,61.47
2022-12-14T21:37:17.720Z,65.68
2022-12-14T21:39:52.194Z,67.22
2022-12-14T21:42:22.370Z,69.88
2022-12-14T21:44:52.228Z,65.70
2022-12-14T21:47:21.840Z,63.95
2022-12-14T21:49:49.915Z,72.13
2022-12-14T21:52:21.251Z,64.03
2022-12-14T21:54:49.044Z,65.43
2022-12-14T21:57:36.544Z,67.68
2022-12-14T22:00:05.707Z,65.25
2022-12-14T22:02:33.561Z,59.80
2022-12-14T22:05:01.367Z,68.80
2022-12-14T22:07:33.243Z,66.43
2022-12-14T22:10:01.327Z,59.00
2022-12-14T22:12:29.383Z,67.85
2022-12-14T22:14:57.301Z,59.75
2022-12-14T22:17:25.133Z,69.32
2022-12-14T22:19:54.937Z,63.97
2022-12-14T22:22:22.588Z,70.90
2022-12-14T22:24:51.984Z,62.88
2022-12-14T22:27:21.139Z,43.30
2022-12-14T22:29:49.069Z,67.63
2022-12-14T22:32:16.872Z,68.82
2022-12-14T22:34:45.031Z,69.28
2022-12-14T22:37:16.467Z,66.65
2022-12-14T22:39:44.142Z,65.88
2022-12-14T22:42:16.982Z,68.60
2022-12-14T22:44:45.041Z,70.10
2022-12-14T22:47:12.711Z,65.95
2022-12-14T22:49:40.395Z,66.03
2022-12-14T22:52:08.065Z,69.93
2022-12-14T22:54:38.820Z,66.28
2022-12-14T22:57:11.037Z,70.20
2022-12-14T22:59:44.085Z,65.50
2022-12-14T23:02:12.082Z,72.35
2022-12-14T23:04:40.219Z,70.28
2022-12-14T23:07:08.246Z,70.88
2022-12-14T23:09:53.744Z,69.55
2022-12-14T23:12:39.078Z,75.18
2022-12-14T23:15:26.075Z,77.63
2022-12-14T23:18:13.364Z,76.93
2022-12-14T23:20:58.705Z,69.13
2022-12-14T23:23:44.113Z,69.22
2022-12-14T23:26:29.414Z,68.68
2022-12-14T23:29:14.591Z,75.85
2022-12-14T23:32:01.192Z,69.75
2022-12-14T23:34:47.803Z,67.85
2022-12-14T23:37:33.176Z,70.18
2022-12-14T23:40:18.572Z,69.35
2022-12-14T23:43:03.686Z,67.38
2022-12-14T23:45:49.016Z,71.53
2022-12-14T23:48:35.704Z,73.35
2022-12-14T23:51:20.864Z,67.53
2022-12-14T23:54:06.097Z,59.88
2022-12-14T23:56:51.256Z,64.32
2022-12-14T23:59:36.342Z,68.78
